Time;durP1;ratioP1;P1;durP2;ratioP2;P2;SDS_P1;SDS_P2;PMS_P1;PMS_P2;Temp;Humidity;BMP_temperature;BMP_pressure;BME280_temperature;BME280_humidity;BME280_pressure;Samples;Min_cycle;Max_cycle;Signal;HPM_P1;HPM_P2
2023/03/03 00:01:24;;;;;;;44.47;21.45;;;;;;;;;;4995550;28;20236;-42
2023/03/03 00:03:50;;;;;;;39.42;18.40;;;;;;;;;;4997735;28;20182;-41
2023/03/03 00:06:16;;;;;;;54.35;20.63;;;;;;;;;;4992365;28;20283;-41
2023/03/03 00:08:42;;;;;;;50.55;23.45;;;;;;;;;;4992272;28;20168;-41
2023/03/03 00:11:08;;;;;;;43.13;20.37;;;;;;;;;;4993493;28;20610;-42
2023/03/03 00:13:43;;;;;;;43.22;19.63;;;;;;;;;;4994754;28;20416;-42
2023/03/03 00:16:26;;;;;;;45.67;21.30;;;;;;;;;;4986281;28;20614;-42
2023/03/03 00:18:53;;;;;;;41.28;17.05;;;;;;;;;;4991772;28;20464;-43
2023/03/03 00:21:24;;;;;;;44.40;19.55;;;;;;;;;;4992891;28;20205;-42
2023/03/03 00:23:50;;;;;;;43.72;19.05;;;;;;;;;;4992803;28;20209;-43
2023/03/03 00:26:21;;;;;;;33.30;15.37;;;;;;;;;;4993754;28;20620;-41
2023/03/03 00:28:49;;;;;;;47.90;19.58;;;;;;;;;;4994463;28;20416;-42
2023/03/03 00:31:19;;;;;;;34.40;15.57;;;;;;;;;;4991426;28;20197;-42
2023/03/03 00:33:53;;;;;;;40.80;17.42;;;;;;;;;;4993317;28;20597;-41
2023/03/03 00:36:38;;;;;;;48.08;18.85;;;;;;;;;;4988425;28;20597;-42
2023/03/03 00:39:22;;;;;;;46.90;20.17;;;;;;;;;;4993321;28;20173;-42
2023/03/03 00:41:48;;;;;;;44.85;21.27;;;;;;;;;;4992378;28;20231;-41
2023/03/03 00:44:26;;;;;;;42.33;20.00;;;;;;;;;;4993318;28;20656;-42
2023/03/03 00:46:53;;;;;;;39.55;18.98;;;;;;;;;;4991256;28;20404;-43
2023/03/03 00:49:23;;;;;;;41.92;19.42;;;;;;;;;;4993323;28;20194;-41
2023/03/03 00:51:51;;;;;;;41.85;16.08;;;;;;;;;;4992330;28;20198;-42
2023/03/03 00:54:17;;;;;;;43.60;20.30;;;;;;;;;;4993001;28;20184;-43
2023/03/03 00:56:43;;;;;;;44.37;19.50;;;;;;;;;;4993167;28;20172;-43
2023/03/03 00:59:09;;;;;;;56.92;22.55;;;;;;;;;;4996400;28;20792;-42
2023/03/03 01:01:35;;;;;;;43.03;21.47;;;;;;;;;;4995285;28;20198;-43
2023/03/03 01:04:01;;;;;;;44.43;19.00;;;;;;;;;;4992787;28;20791;-42
2023/03/03 01:06:27;;;;;;;49.20;20.23;;;;;;;;;;4992981;28;20519;-42
2023/03/03 01:08:56;;;;;;;42.97;18.40;;;;;;;;;;4990435;28;20436;-41
2023/03/03 01:11:24;;;;;;;39.03;18.48;;;;;;;;;;4992026;28;20428;-43
2023/03/03 01:13:50;;;;;;;46.42;20.70;;;;;;;;;;4992540;28;20202;-41
2023/03/03 01:16:16;;;;;;;49.28;22.75;;;;;;;;;;4992915;28;20291;-43
2023/03/03 01:18:42;;;;;;;48.40;20.40;;;;;;;;;;4992683;28;20636;-44
2023/03/03 01:21:09;;;;;;;46.00;20.40;;;;;;;;;;4991738;28;20271;-42
2023/03/03 01:23:35;;;;;;;54.63;20.77;;;;;;;;;;4992595;28;20260;-41
2023/03/03 01:26:01;;;;;;;52.65;22.65;;;;;;;;;;4993073;28;20189;-42
2023/03/03 01:28:27;;;;;;;39.97;18.70;;;;;;;;;;4992482;28;20173;-42
2023/03/03 01:30:53;;;;;;;52.33;20.87;;;;;;;;;;4991644;28;20184;-42
2023/03/03 01:33:20;;;;;;;42.95;18.25;;;;;;;;;;4991898;28;20483;-42
2023/03/03 01:35:47;;;;;;;50.78;18.35;;;;;;;;;;4992512;28;20188;-43
2023/03/03 01:38:14;;;;;;;47.30;20.63;;;;;;;;;;4991516;28;20188;-42
2023/03/03 01:40:40;;;;;;;42.83;18.48;;;;;;;;;;4991236;28;20181;-43
2023/03/03 01:43:06;;;;;;;50.17;18.65;;;;;;;;;;4992114;28;20178;-42
2023/03/03 01:45:38;;;;;;;43.40;18.90;;;;;;;;;;4992424;28;20209;-41
2023/03/03 01:48:06;;;;;;;44.58;17.77;;;;;;;;;;4990937;28;20844;-44
2023/03/03 01:50:40;;;;;;;43.75;19.77;;;;;;;;;;4991837;28;20185;-42
2023/03/03 01:53:10;;;;;;;45.20;19.27;;;;;;;;;;4993653;28;20200;-41
2023/03/03 01:55:39;;;;;;;43.13;18.55;;;;;;;;;;4993624;28;20180;-42
2023/03/03 01:58:13;;;;;;;46.70;18.52;;;;;;;;;;4992246;28;20227;-41
2023/03/03 02:00:41;;;;;;;33.58;17.92;;;;;;;;;;4997404;28;20180;-41
2023/03/03 02:03:07;;;;;;;45.20;18.40;;;;;;;;;;4990637;28;20185;-43
2023/03/03 02:05:35;;;;;;;47.43;20.27;;;;;;;;;;4991726;28;20299;-41
2023/03/03 02:08:01;;;;;;;40.30;19.63;;;;;;;;;;4992033;28;20419;-41
2023/03/03 02:10:28;;;;;;;47.60;18.55;;;;;;;;;;4991462;28;20234;-41
2023/03/03 02:12:55;;;;;;;40.72;18.17;;;;;;;;;;4991651;28;20666;-41
2023/03/03 02:15:25;;;;;;;50.45;20.40;;;;;;;;;;4992244;28;20215;-42
2023/03/03 02:17:56;;;;;;;50.60;20.40;;;;;;;;;;4992076;28;20193;-42
2023/03/03 02:20:41;;;;;;;51.92;19.90;;;;;;;;;;4992922;28;20703;-41
2023/03/03 02:23:12;;;;;;;43.90;18.88;;;;;;;;;;4994828;28;20223;-42
2023/03/03 02:25:56;;;;;;;42.42;18.30;;;;;;;;;;4990363;28;20280;-41
2023/03/03 02:28:30;;;;;;;47.08;17.38;;;;;;;;;;4992666;28;20199;-42
2023/03/03 02:30:57;;;;;;;41.75;18.50;;;;;;;;;;4992552;28;20180;-42
2023/03/03 02:33:23;;;;;;;28.20;15.50;;;;;;;;;;4992114;28;20600;-42
2023/03/03 02:35:49;;;;;;;53.42;22.50;;;;;;;;;;4993606;28;20623;-42
2023/03/03 02:38:21;;;;;;;49.50;19.60;;;;;;;;;;4992107;28;20279;-42
2023/03/03 02:41:10;;;;;;;47.10;19.35;;;;;;;;;;4995733;28;20413;-42
2023/03/03 02:43:44;;;;;;;45.30;20.50;;;;;;;;;;4991903;28;20200;-42
2023/03/03 02:46:10;;;;;;;41.70;19.30;;;;;;;;;;4984164;28;20207;-42
2023/03/03 02:48:36;;;;;;;38.28;20.20;;;;;;;;;;4990862;28;20205;-41
2023/03/03 02:51:02;;;;;;;46.90;21.13;;;;;;;;;;4993090;28;20232;-42
2023/03/03 02:53:28;;;;;;;49.40;18.70;;;;;;;;;;4997726;28;20431;-41
2023/03/03 02:55:53;;;;;;;44.87;18.23;;;;;;;;;;4997293;28;20931;-43
2023/03/03 02:58:19;;;;;;;42.43;18.87;;;;;;;;;;4995543;28;20745;-42
2023/03/03 03:00:49;;;;;;;39.15;14.90;;;;;;;;;;4993497;28;20453;-43
2023/03/03 03:03:15;;;;;;;51.63;20.52;;;;;;;;;;4994574;28;20182;-43
2023/03/03 03:05:40;;;;;;;36.17;16.57;;;;;;;;;;4995077;28;20208;-42
2023/03/03 03:08:06;;;;;;;43.20;19.60;;;;;;;;;;4995346;28;20419;-42
2023/03/03 03:10:32;;;;;;;46.07;19.70;;;;;;;;;;4994507;28;20448;-43
2023/03/03 03:12:58;;;;;;;46.83;19.67;;;;;;;;;;4995189;28;20429;-44
2023/03/03 03:15:24;;;;;;;49.73;19.67;;;;;;;;;;4995282;28;20892;-42
2023/03/03 03:17:50;;;;;;;44.97;19.23;;;;;;;;;;4995164;28;20835;-41
2023/03/03 03:20:17;;;;;;;46.40;18.90;;;;;;;;;;4993361;28;20804;-46
2023/03/03 03:22:43;;;;;;;45.70;18.98;;;;;;;;;;4994974;28;20490;-43
2023/03/03 03:25:09;;;;;;;52.53;19.70;;;;;;;;;;4994894;28;20201;-42
2023/03/03 03:27:35;;;;;;;46.45;20.17;;;;;;;;;;4995027;28;20184;-42
2023/03/03 03:30:01;;;;;;;42.13;18.10;;;;;;;;;;4993274;28;20544;-42
2023/03/03 03:32:26;;;;;;;47.80;19.97;;;;;;;;;;4994382;28;20428;-42
2023/03/03 03:34:52;;;;;;;54.13;21.30;;;;;;;;;;4994717;28;20920;-42
2023/03/03 03:37:18;;;;;;;49.03;20.33;;;;;;;;;;4994784;28;20412;-42
2023/03/03 03:39:44;;;;;;;52.27;21.10;;;;;;;;;;4994749;28;20418;-44
2023/03/03 03:42:10;;;;;;;52.53;21.40;;;;;;;;;;4993937;28;20455;-42
2023/03/03 03:44:36;;;;;;;45.30;20.50;;;;;;;;;;4994634;28;20472;-42
2023/03/03 03:47:02;;;;;;;51.30;19.43;;;;;;;;;;4994602;28;20447;-42
2023/03/03 03:49:28;;;;;;;54.37;20.63;;;;;;;;;;4992816;28;20425;-41
2023/03/03 03:51:57;;;;;;;67.27;24.63;;;;;;;;;;4993082;28;20448;-41
2023/03/03 03:54:23;;;;;;;45.03;21.02;;;;;;;;;;4994493;28;20415;-41
2023/03/03 03:56:49;;;;;;;58.23;23.03;;;;;;;;;;4994785;28;20177;-42
2023/03/03 03:59:15;;;;;;;54.13;22.60;;;;;;;;;;4994384;28;20503;-42
2023/03/03 04:01:41;;;;;;;58.70;22.67;;;;;;;;;;4997880;28;20432;-41
2023/03/03 04:04:07;;;;;;;65.53;25.13;;;;;;;;;;4994217;28;20410;-41
2023/03/03 04:06:33;;;;;;;75.80;24.50;;;;;;;;;;4994191;28;20471;-41
2023/03/03 04:08:59;;;;;;;82.27;27.73;;;;;;;;;;4993934;28;20420;-41
2023/03/03 04:11:25;;;;;;;85.80;25.90;;;;;;;;;;4994416;28;20478;-43
2023/03/03 04:13:50;;;;;;;74.80;25.90;;;;;;;;;;4994179;28;20405;-43
2023/03/03 04:16:16;;;;;;;54.63;25.37;;;;;;;;;;4994599;28;20775;-44
2023/03/03 04:18:42;;;;;;;68.37;25.00;;;;;;;;;;4993029;28;20530;-43
2023/03/03 04:21:12;;;;;;;72.07;27.73;;;;;;;;;;4992380;28;20519;-43
2023/03/03 04:23:38;;;;;;;50.47;22.60;;;;;;;;;;4993939;28;20185;-43
2023/03/03 04:26:04;;;;;;;62.40;25.17;;;;;;;;;;4993882;28;20233;-43
2023/03/03 04:28:30;;;;;;;68.35;26.60;;;;;;;;;;4993901;28;20443;-43
2023/03/03 04:30:56;;;;;;;78.27;27.53;;;;;;;;;;4993016;28;20208;-44
2023/03/03 04:33:22;;;;;;;73.93;27.00;;;;;;;;;;4993359;28;20428;-43
2023/03/03 04:35:48;;;;;;;82.80;28.00;;;;;;;;;;4993650;28;20475;-43
2023/03/03 04:38:14;;;;;;;62.42;27.25;;;;;;;;;;4993930;28;20484;-43
2023/03/03 04:40:41;;;;;;;60.22;22.80;;;;;;;;;;4992861;28;20185;-43
2023/03/03 04:43:07;;;;;;;70.55;26.05;;;;;;;;;;4996592;28;20588;-43
2023/03/03 04:45:33;;;;;;;67.85;27.75;;;;;;;;;;4993429;28;20306;-43
2023/03/03 04:48:01;;;;;;;65.07;23.17;;;;;;;;;;4993381;28;20196;-43
2023/03/03 04:50:27;;;;;;;91.60;30.85;;;;;;;;;;4990796;28;20177;-43
2023/03/03 04:52:53;;;;;;;68.47;25.65;;;;;;;;;;4997509;28;20205;-43
2023/03/03 04:55:19;;;;;;;72.07;26.30;;;;;;;;;;4993352;28;20181;-43
2023/03/03 04:57:45;;;;;;;89.30;28.03;;;;;;;;;;4993271;28;20185;-43
2023/03/03 05:00:12;;;;;;;80.17;27.27;;;;;;;;;;4992455;28;20498;-44
2023/03/03 05:02:38;;;;;;;84.43;26.58;;;;;;;;;;4998635;28;20773;-44
2023/03/03 05:05:05;;;;;;;67.82;25.75;;;;;;;;;;4993413;28;20197;-43
2023/03/03 05:07:31;;;;;;;66.93;22.45;;;;;;;;;;4993191;28;20251;-43
2023/03/03 05:09:57;;;;;;;46.10;17.20;;;;;;;;;;4992982;28;20276;-43
2023/03/03 05:12:23;;;;;;;55.50;20.90;;;;;;;;;;4992243;28;20436;-44
2023/03/03 05:14:49;;;;;;;70.17;23.10;;;;;;;;;;4991629;28;20428;-43
2023/03/03 05:17:15;;;;;;;51.27;19.10;;;;;;;;;;4998987;28;20482;-43
2023/03/03 05:19:41;;;;;;;43.05;17.42;;;;;;;;;;4992714;28;20404;-43
2023/03/03 05:22:07;;;;;;;53.63;19.73;;;;;;;;;;4993294;28;20567;-43
2023/03/03 05:24:32;;;;;;;41.80;17.40;;;;;;;;;;4994218;28;20427;-43
2023/03/03 05:26:59;;;;;;;51.00;18.70;;;;;;;;;;4994248;28;20400;-43
2023/03/03 05:29:26;;;;;;;43.35;17.67;;;;;;;;;;4997040;28;20919;-44
2023/03/03 05:31:52;;;;;;;55.88;17.67;;;;;;;;;;4991910;28;20197;-43
2023/03/03 05:34:18;;;;;;;48.47;15.40;;;;;;;;;;4992869;28;20482;-43
2023/03/03 05:36:44;;;;;;;54.20;18.70;;;;;;;;;;4992562;28;20423;-43
2023/03/03 05:39:10;;;;;;;53.45;18.83;;;;;;;;;;4992750;28;20425;-43
2023/03/03 05:41:38;;;;;;;47.47;20.03;;;;;;;;;;4991856;28;20196;-43
2023/03/03 05:44:04;;;;;;;59.03;20.40;;;;;;;;;;4991279;28;20412;-44
2023/03/03 05:46:29;;;;;;;49.70;19.20;;;;;;;;;;4991538;28;20209;-43
2023/03/03 05:48:55;;;;;;;49.37;18.83;;;;;;;;;;4992194;28;20408;-43
2023/03/03 05:51:21;;;;;;;42.07;16.30;;;;;;;;;;4989412;28;20454;-44
2023/03/03 05:53:47;;;;;;;52.50;20.15;;;;;;;;;;4991457;28;20824;-43
2023/03/03 05:56:15;;;;;;;64.80;20.97;;;;;;;;;;4991078;28;20177;-44
2023/03/03 05:58:42;;;;;;;51.60;17.45;;;;;;;;;;4992077;28;20416;-43
2023/03/03 06:01:08;;;;;;;54.30;19.67;;;;;;;;;;4990251;28;20747;-43
2023/03/03 06:03:34;;;;;;;44.30;19.10;;;;;;;;;;4996726;28;20181;-44
2023/03/03 06:06:01;;;;;;;47.55;18.25;;;;;;;;;;4992178;28;20463;-43
2023/03/03 06:08:28;;;;;;;50.03;18.60;;;;;;;;;;4992190;28;20653;-44
2023/03/03 06:10:54;;;;;;;47.88;18.65;;;;;;;;;;4991600;28;20656;-43
2023/03/03 06:13:21;;;;;;;46.87;17.47;;;;;;;;;;4992434;28;20246;-43
2023/03/03 06:15:48;;;;;;;52.45;20.63;;;;;;;;;;4990998;28;20464;-43
2023/03/03 06:18:14;;;;;;;52.65;19.33;;;;;;;;;;4991278;28;20245;-43
2023/03/03 06:20:40;;;;;;;53.37;18.27;;;;;;;;;;4991410;28;20185;-43
2023/03/03 06:23:06;;;;;;;48.80;18.53;;;;;;;;;;4992107;28;20444;-43
2023/03/03 06:25:35;;;;;;;52.00;18.90;;;;;;;;;;4993103;28;20463;-43
2023/03/03 06:28:01;;;;;;;47.33;19.08;;;;;;;;;;4996141;28;20515;-43
2023/03/03 06:30:29;;;;;;;42.78;17.73;;;;;;;;;;4995232;28;20169;-43
2023/03/03 06:32:55;;;;;;;46.38;19.20;;;;;;;;;;4995357;28;20239;-43
2023/03/03 06:35:21;;;;;;;45.33;18.37;;;;;;;;;;4996101;28;20670;-43
2023/03/03 06:37:49;;;;;;;52.73;18.23;;;;;;;;;;5002492;28;20791;-43
2023/03/03 06:40:15;;;;;;;52.22;20.95;;;;;;;;;;4995058;28;20424;-43
2023/03/03 06:42:41;;;;;;;43.47;15.90;;;;;;;;;;4995787;28;20200;-43
2023/03/03 06:45:07;;;;;;;43.03;19.17;;;;;;;;;;4993853;28;20727;-43
2023/03/03 06:47:33;;;;;;;50.65;19.27;;;;;;;;;;4995929;28;20462;-43
2023/03/03 06:49:59;;;;;;;44.83;15.00;;;;;;;;;;4995553;28;20177;-43
2023/03/03 06:52:26;;;;;;;46.37;16.80;;;;;;;;;;4995419;28;20697;-43
2023/03/03 06:54:56;;;;;;;42.17;16.48;;;;;;;;;;4995542;28;20423;-43
2023/03/03 06:57:29;;;;;;;36.88;15.25;;;;;;;;;;4995561;28;20232;-43
2023/03/03 06:59:58;;;;;;;35.95;14.85;;;;;;;;;;4995341;28;20185;-43
2023/03/03 07:02:24;;;;;;;38.85;16.15;;;;;;;;;;4994731;28;20201;-44
2023/03/03 07:04:50;;;;;;;47.80;17.40;;;;;;;;;;4995293;28;20208;-43
2023/03/03 07:07:19;;;;;;;48.67;17.60;;;;;;;;;;4995393;28;20434;-43
2023/03/03 07:09:46;;;;;;;43.67;18.13;;;;;;;;;;4991942;28;20224;-43
2023/03/03 07:12:16;;;;;;;47.55;18.17;;;;;;;;;;4993929;28;20620;-44
2023/03/03 07:14:44;;;;;;;41.03;16.52;;;;;;;;;;4992861;28;20252;-43
2023/03/03 07:17:16;;;;;;;40.60;15.90;;;;;;;;;;4986894;28;20179;-44
2023/03/03 07:19:42;;;;;;;48.53;19.05;;;;;;;;;;4991117;28;20537;-43
2023/03/03 07:22:19;;;;;;;36.10;16.33;;;;;;;;;;4989019;28;20613;-43
2023/03/03 07:24:46;;;;;;;30.95;13.68;;;;;;;;;;4991148;28;20204;-43
2023/03/03 07:27:28;;;;;;;38.80;15.45;;;;;;;;;;4994006;28;20196;-43
2023/03/03 07:29:59;;;;;;;39.28;15.45;;;;;;;;;;4994394;28;20169;-44
2023/03/03 07:32:26;;;;;;;29.73;13.25;;;;;;;;;;4993934;28;20204;-43
2023/03/03 07:34:54;;;;;;;35.28;14.45;;;;;;;;;;4993996;28;20590;-43
2023/03/03 07:37:20;;;;;;;28.13;12.35;;;;;;;;;;4993693;28;20669;-44
2023/03/03 07:39:47;;;;;;;30.50;13.20;;;;;;;;;;4998830;28;20192;-43
2023/03/03 07:42:26;;;;;;;31.20;13.32;;;;;;;;;;4993322;28;20440;-43
2023/03/03 07:44:54;;;;;;;34.00;14.27;;;;;;;;;;4993061;28;20204;-43
2023/03/03 07:47:20;;;;;;;29.10;11.70;;;;;;;;;;4994433;28;20295;-43
2023/03/03 07:49:46;;;;;;;29.43;13.70;;;;;;;;;;4993785;28;20735;-43
2023/03/03 07:52:27;;;;;;;32.03;13.48;;;;;;;;;;4993337;28;20424;-43
2023/03/03 07:54:55;;;;;;;31.55;13.70;;;;;;;;;;4993765;28;20191;-43
2023/03/03 07:57:26;;;;;;;30.30;12.45;;;;;;;;;;4994199;28;20207;-43
2023/03/03 07:59:54;;;;;;;38.75;15.65;;;;;;;;;;4993750;28;20177;-43
2023/03/03 08:02:23;;;;;;;40.33;15.68;;;;;;;;;;4991738;28;20212;-44
2023/03/03 08:04:51;;;;;;;26.40;13.52;;;;;;;;;;4993063;28;20751;-43
2023/03/03 08:07:18;;;;;;;29.02;12.40;;;;;;;;;;4994352;28;20173;-43
2023/03/03 08:10:00;;;;;;;40.78;14.75;;;;;;;;;;4993964;28;20172;-43
2023/03/03 08:12:28;;;;;;;35.92;15.43;;;;;;;;;;4994667;28;20201;-43
2023/03/03 08:14:56;;;;;;;35.50;15.82;;;;;;;;;;4992681;28;20192;-43
2023/03/03 08:17:28;;;;;;;40.78;16.15;;;;;;;;;;4993358;28;20181;-44
2023/03/03 08:19:54;;;;;;;37.40;14.90;;;;;;;;;;4994175;28;20192;-43
2023/03/03 08:22:23;;;;;;;36.88;14.93;;;;;;;;;;4991428;28;20566;-43
2023/03/03 08:24:50;;;;;;;41.83;16.08;;;;;;;;;;4993807;28;20351;-43
2023/03/03 08:27:16;;;;;;;51.47;17.08;;;;;;;;;;4993526;28;20657;-43
2023/03/03 08:29:42;;;;;;;46.97;18.47;;;;;;;;;;4993665;28;20183;-43
2023/03/03 08:32:08;;;;;;;58.33;18.13;;;;;;;;;;4993128;28;20443;-43
2023/03/03 08:34:34;;;;;;;49.43;21.70;;;;;;;;;;4993354;28;20483;-43
2023/03/03 08:37:00;;;;;;;45.80;19.50;;;;;;;;;;4993652;28;20483;-44
2023/03/03 08:39:26;;;;;;;69.88;23.05;;;;;;;;;;4993640;28;20408;-43
2023/03/03 08:41:52;;;;;;;64.35;23.63;;;;;;;;;;4992457;28;20550;-43
2023/03/03 08:44:19;;;;;;;71.37;26.50;;;;;;;;;;4992321;28;20236;-43
2023/03/03 08:46:46;;;;;;;74.50;28.42;;;;;;;;;;4993019;28;20463;-43
2023/03/03 08:49:12;;;;;;;65.93;22.58;;;;;;;;;;4992657;28;20181;-43
2023/03/03 08:51:38;;;;;;;65.33;23.33;;;;;;;;;;4990803;28;20200;-43
2023/03/03 08:54:04;;;;;;;63.42;24.42;;;;;;;;;;4998575;28;20470;-44
2023/03/03 08:56:30;;;;;;;55.15;22.48;;;;;;;;;;4993268;28;20185;-44
2023/03/03 08:58:56;;;;;;;75.53;25.50;;;;;;;;;;4993042;28;20189;-43
2023/03/03 09:01:22;;;;;;;73.07;28.70;;;;;;;;;;4992532;28;20518;-43
2023/03/03 09:03:48;;;;;;;67.60;24.60;;;;;;;;;;4992524;28;20917;-43
2023/03/03 09:06:14;;;;;;;77.60;26.73;;;;;;;;;;4992882;28;20839;-43
2023/03/03 09:08:40;;;;;;;65.43;22.57;;;;;;;;;;4993010;28;20169;-43
2023/03/03 09:11:10;;;;;;;58.83;22.27;;;;;;;;;;4992211;28;20860;-44
2023/03/03 09:13:36;;;;;;;59.13;22.80;;;;;;;;;;4992571;28;20441;-43
2023/03/03 09:16:08;;;;;;;60.07;22.33;;;;;;;;;;4992910;28;20185;-43
2023/03/03 09:18:38;;;;;;;61.20;21.50;;;;;;;;;;4992907;28;20482;-43
2023/03/03 09:21:36;;;;;;;57.88;21.02;;;;;;;;;;4991980;28;20609;-43
2023/03/03 09:24:03;;;;;;;55.65;20.38;;;;;;;;;;4971325;28;20205;-43
2023/03/03 09:26:44;;;;;;;73.25;21.88;;;;;;;;;;4991581;28;20208;-43
2023/03/03 09:29:13;;;;;;;53.42;21.42;;;;;;;;;;4984996;28;20183;-43
2023/03/03 09:31:42;;;;;;;70.88;22.70;;;;;;;;;;4991789;28;20189;-43
2023/03/03 09:34:23;;;;;;;62.20;23.38;;;;;;;;;;4992082;28;20280;-43
2023/03/03 09:36:50;;;;;;;59.42;18.88;;;;;;;;;;4992516;28;20182;-42
2023/03/03 09:39:18;;;;;;;67.13;20.80;;;;;;;;;;4992466;28;20576;-43
2023/03/03 09:41:50;;;;;;;74.38;25.33;;;;;;;;;;4991483;28;20196;-43
2023/03/03 09:44:16;;;;;;;63.15;23.15;;;;;;;;;;4992063;28;20196;-43
2023/03/03 09:46:52;;;;;;;56.80;22.10;;;;;;;;;;4992471;28;20212;-43
2023/03/03 09:49:46;;;;;;;61.65;19.40;;;;;;;;;;4986574;28;20412;-43
2023/03/03 09:52:15;;;;;;;44.40;17.75;;;;;;;;;;4983231;28;20227;-42
2023/03/03 09:55:06;;;;;;;47.28;17.90;;;;;;;;;;4990886;28;20177;-44
2023/03/03 09:57:32;;;;;;;54.03;18.80;;;;;;;;;;4987674;28;20672;-43
2023/03/03 10:00:07;;;;;;;57.80;20.00;;;;;;;;;;4991883;28;20192;-43
2023/03/03 10:02:53;;;;;;;52.42;20.15;;;;;;;;;;4992248;28;20567;-44
2023/03/03 10:05:25;;;;;;;50.08;18.55;;;;;;;;;;4984133;28;20603;-43
2023/03/03 10:07:57;;;;;;;48.58;18.45;;;;;;;;;;4991876;28;20211;-42
2023/03/03 10:10:29;;;;;;;42.33;15.45;;;;;;;;;;4991416;28;20184;-43
2023/03/03 10:13:14;;;;;;;45.42;18.42;;;;;;;;;;4992519;28;20193;-43
2023/03/03 10:15:51;;;;;;;37.20;15.23;;;;;;;;;;4991702;28;20180;-43
2023/03/03 10:18:25;;;;;;;54.33;19.92;;;;;;;;;;4985171;28;20176;-42
2023/03/03 10:20:57;;;;;;;52.53;20.02;;;;;;;;;;4988898;28;20187;-44
2023/03/03 10:23:23;;;;;;;56.78;19.35;;;;;;;;;;4990629;28;20227;-43
2023/03/03 10:25:55;;;;;;;67.37;21.70;;;;;;;;;;4991342;28;20204;-43
2023/03/03 10:28:33;;;;;;;69.78;22.55;;;;;;;;;;4992053;28;20417;-43
2023/03/03 10:31:03;;;;;;;66.68;21.30;;;;;;;;;;4991017;28;20271;-43
2023/03/03 10:33:46;;;;;;;71.25;23.42;;;;;;;;;;4991774;28;20184;-43
2023/03/03 10:36:18;;;;;;;52.38;20.13;;;;;;;;;;4984091;28;20707;-43
2023/03/03 10:39:09;;;;;;;73.93;22.73;;;;;;;;;;4991653;28;20223;-43
2023/03/03 10:41:38;;;;;;;68.72;24.50;;;;;;;;;;4991035;28;20220;-43
2023/03/03 10:44:24;;;;;;;63.80;20.15;;;;;;;;;;4993240;28;20176;-43
2023/03/03 10:46:56;;;;;;;59.60;19.95;;;;;;;;;;4991586;28;20193;-43
2023/03/03 10:49:41;;;;;;;52.03;20.75;;;;;;;;;;4991600;28;20188;-43
2023/03/03 10:52:12;;;;;;;58.47;20.30;;;;;;;;;;4990027;28;20565;-43
2023/03/03 10:54:57;;;;;;;66.05;16.80;;;;;;;;;;4991432;28;20174;-44
2023/03/03 10:57:34;;;;;;;45.67;17.80;;;;;;;;;;4985615;28;20183;-44
2023/03/03 11:00:01;;;;;;;65.90;19.90;;;;;;;;;;4991424;28;20180;-43
2023/03/03 11:02:32;;;;;;;59.38;21.17;;;;;;;;;;4991112;28;20231;-43
2023/03/03 11:05:01;;;;;;;47.17;18.20;;;;;;;;;;4991344;28;20692;-43
2023/03/03 11:07:46;;;;;;;48.95;18.45;;;;;;;;;;4991409;28;20180;-43
2023/03/03 11:10:20;;;;;;;46.30;18.33;;;;;;;;;;4983433;28;20184;-43
2023/03/03 11:13:08;;;;;;;44.03;18.13;;;;;;;;;;4994162;28;20231;-43
2023/03/03 11:15:44;;;;;;;48.60;18.52;;;;;;;;;;4994960;28;20188;-43
2023/03/03 11:18:15;;;;;;;47.42;18.35;;;;;;;;;;4987150;28;20184;-43
2023/03/03 11:20:54;;;;;;;35.70;14.05;;;;;;;;;;4993875;28;20596;-43
2023/03/03 11:23:35;;;;;;;62.13;18.05;;;;;;;;;;4988553;28;20169;-43
2023/03/03 11:26:13;;;;;;;39.63;14.90;;;;;;;;;;4992859;28;20704;-42
2023/03/03 11:28:47;;;;;;;41.78;16.42;;;;;;;;;;4994643;28;20494;-43
2023/03/03 11:31:28;;;;;;;32.42;15.63;;;;;;;;;;4986835;28;20673;-43
2023/03/03 11:33:54;;;;;;;31.50;14.63;;;;;;;;;;4992411;28;20187;-43
2023/03/03 11:36:23;;;;;;;49.83;14.77;;;;;;;;;;4994412;28;20173;-43
2023/03/03 11:39:15;;;;;;;45.38;14.85;;;;;;;;;;4994184;28;20491;-43
2023/03/03 11:41:42;;;;;;;39.22;14.25;;;;;;;;;;4999477;28;20612;-43
2023/03/03 11:44:26;;;;;;;41.08;16.27;;;;;;;;;;4994164;28;20185;-43
2023/03/03 11:47:11;;;;;;;43.65;16.00;;;;;;;;;;4994271;28;20506;-44
2023/03/03 11:49:37;;;;;;;45.42;15.40;;;;;;;;;;4993100;28;20187;-43
2023/03/03 11:52:14;;;;;;;43.47;17.37;;;;;;;;;;4993136;28;20209;-44
2023/03/03 11:54:48;;;;;;;43.42;16.08;;;;;;;;;;4993633;28;20412;-43
2023/03/03 11:57:32;;;;;;;48.83;18.30;;;;;;;;;;4986221;28;20181;-44
2023/03/03 12:00:16;;;;;;;44.30;15.70;;;;;;;;;;4993761;28;20709;-43
2023/03/03 12:02:42;;;;;;;38.83;16.80;;;;;;;;;;4993907;28;20208;-44
2023/03/03 12:05:21;;;;;;;41.33;15.13;;;;;;;;;;4993986;28;20189;-43
2023/03/03 12:07:57;;;;;;;47.83;16.90;;;;;;;;;;4993911;28;20455;-44
2023/03/03 12:10:37;;;;;;;34.28;15.65;;;;;;;;;;4993355;28;20518;-44
2023/03/03 12:13:26;;;;;;;36.67;14.85;;;;;;;;;;4993214;28;20220;-43
2023/03/03 12:16:31;;;;;;;43.45;17.40;;;;;;;;;;4987014;28;20185;-43
2023/03/03 12:19:20;;;;;;;36.30;14.70;;;;;;;;;;4951321;29;20182;-43
2023/03/03 12:21:52;;;;;;;30.00;11.63;;;;;;;;;;4943050;28;20344;-44
2023/03/03 12:24:23;;;;;;;41.05;14.13;;;;;;;;;;4978538;28;20246;-44
2023/03/03 12:27:24;;;;;;;40.83;13.50;;;;;;;;;;4993227;28;20207;-43
2023/03/03 12:29:56;;;;;;;39.20;14.13;;;;;;;;;;4950098;29;20186;-43
2023/03/03 12:32:40;;;;;;;32.50;14.55;;;;;;;;;;4986055;28;20241;-43
2023/03/03 12:35:06;;;;;;;39.72;16.27;;;;;;;;;;4993318;28;20216;-43
2023/03/03 12:37:32;;;;;;;38.27;16.43;;;;;;;;;;4993382;28;20201;-43
2023/03/03 12:39:58;;;;;;;50.43;18.47;;;;;;;;;;4993326;28;20479;-43
2023/03/03 12:42:36;;;;;;;44.37;17.20;;;;;;;;;;4992659;28;20971;-43
2023/03/03 12:45:21;;;;;;;41.63;17.20;;;;;;;;;;4993223;28;20538;-44
2023/03/03 12:47:50;;;;;;;38.95;16.48;;;;;;;;;;4993045;28;20180;-43
2023/03/03 12:50:28;;;;;;;48.03;17.67;;;;;;;;;;4990555;28;20544;-43
2023/03/03 12:53:08;;;;;;;45.17;17.65;;;;;;;;;;4991041;28;20192;-44
2023/03/03 12:55:55;;;;;;;42.95;15.35;;;;;;;;;;4993207;28;20255;-43
2023/03/03 12:58:21;;;;;;;32.42;14.15;;;;;;;;;;4986753;28;20173;-43
2023/03/03 13:00:53;;;;;;;37.83;14.87;;;;;;;;;;4992147;28;20184;-43
2023/03/03 13:03:19;;;;;;;42.00;17.77;;;;;;;;;;4986475;28;20823;-44
2023/03/03 13:05:51;;;;;;;44.40;18.37;;;;;;;;;;4992976;28;20422;-43
2023/03/03 13:08:30;;;;;;;41.08;17.13;;;;;;;;;;4992450;28;20404;-43
2023/03/03 13:11:01;;;;;;;37.38;16.95;;;;;;;;;;4992525;28;20587;-43
2023/03/03 13:13:34;;;;;;;47.03;18.45;;;;;;;;;;4992762;28;20196;-43
2023/03/03 13:16:15;;;;;;;44.53;19.63;;;;;;;;;;4992919;28;20211;-43
2023/03/03 13:18:50;;;;;;;46.58;17.23;;;;;;;;;;4991682;28;20696;-44
2023/03/03 13:21:23;;;;;;;48.95;17.73;;;;;;;;;;4990297;28;20203;-43
2023/03/03 13:23:49;;;;;;;45.83;17.73;;;;;;;;;;4992552;28;20181;-44
2023/03/03 13:26:18;;;;;;;41.83;17.07;;;;;;;;;;4992623;28;20295;-44
2023/03/03 13:29:04;;;;;;;40.08;16.92;;;;;;;;;;4991360;28;20791;-42
2023/03/03 13:31:34;;;;;;;37.97;16.58;;;;;;;;;;4986671;28;20685;-43
2023/03/03 13:34:02;;;;;;;35.63;16.27;;;;;;;;;;4991899;28;20278;-44
2023/03/03 13:36:38;;;;;;;46.13;20.05;;;;;;;;;;4992309;28;20729;-44
2023/03/03 13:39:11;;;;;;;40.50;20.90;;;;;;;;;;4992235;28;20204;-43
2023/03/03 13:41:45;;;;;;;49.00;21.13;;;;;;;;;;4991515;28;20572;-43
2023/03/03 13:44:16;;;;;;;45.40;17.85;;;;;;;;;;4984634;28;20274;-44
2023/03/03 13:46:48;;;;;;;45.15;20.85;;;;;;;;;;4992483;28;20205;-43
2023/03/03 13:49:16;;;;;;;53.95;23.20;;;;;;;;;;4985036;28;20177;-43
2023/03/03 13:52:02;;;;;;;48.90;21.95;;;;;;;;;;4990404;28;20357;-43
2023/03/03 13:54:46;;;;;;;47.47;21.80;;;;;;;;;;4989203;28;20653;-43
2023/03/03 13:57:31;;;;;;;52.10;24.13;;;;;;;;;;4992283;28;20188;-43
2023/03/03 13:59:57;;;;;;;52.53;24.67;;;;;;;;;;4991923;28;20408;-43
2023/03/03 14:02:37;;;;;;;54.23;22.60;;;;;;;;;;4991699;28;20433;-43
2023/03/03 14:05:16;;;;;;;51.93;25.20;;;;;;;;;;4991601;28;20463;-43
2023/03/03 14:07:49;;;;;;;56.87;25.00;;;;;;;;;;4992238;28;20528;-43
2023/03/03 14:10:17;;;;;;;62.97;25.47;;;;;;;;;;4988927;28;20433;-44
2023/03/03 14:12:45;;;;;;;51.07;22.17;;;;;;;;;;4991922;28;20445;-44
2023/03/03 14:15:37;;;;;;;63.97;27.17;;;;;;;;;;4992065;28;20425;-43
2023/03/03 14:18:22;;;;;;;47.63;22.83;;;;;;;;;;4987519;28;20434;-43
2023/03/03 14:20:50;;;;;;;54.73;26.07;;;;;;;;;;4990101;28;20431;-44
2023/03/03 14:23:20;;;;;;;47.53;22.00;;;;;;;;;;4991542;28;20424;-43
2023/03/03 14:25:54;;;;;;;47.33;24.87;;;;;;;;;;4991956;28;20467;-44
2023/03/03 14:28:21;;;;;;;48.90;23.03;;;;;;;;;;4992163;28;20517;-44
2023/03/03 14:30:47;;;;;;;44.73;24.10;;;;;;;;;;4991141;28;20411;-43
2023/03/03 14:33:13;;;;;;;51.80;24.77;;;;;;;;;;4991844;28;20455;-43
2023/03/03 14:35:41;;;;;;;51.53;24.07;;;;;;;;;;4991982;28;20451;-44